sensor_id;sensor_type;location;lat;lon;timestamp;pressure;altitude;pressure_sealevel;temperature;humidity
27984;BME280;15317;50.360;8.726;2022-12-16T00:02:46;98608.41;;;-5.64;100.00
27984;BME280;15317;50.360;8.726;2022-12-16T00:06:48;98592.72;;;-5.67;100.00
27984;BME280;15317;50.360;8.726;2022-12-16T00:10:56;98594.50;;;-5.68;100.00
27984;BME280;15317;50.360;8.726;2022-12-16T00:15:13;98605.69;;;-5.63;100.00
27984;BME280;15317;50.360;8.726;2022-12-16T00:19:15;98600.47;;;-5.64;100.00
27984;BME280;15317;50.360;8.726;2022-12-16T00:23:17;98595.03;;;-5.61;100.00
27984;BME280;15317;50.360;8.726;2022-12-16T00:27:20;98594.25;;;-5.63;100.00
27984;BME280;15317;50.360;8.726;2022-12-16T00:31:23;98604.03;;;-5.65;100.00
27984;BME280;15317;50.360;8.726;2022-12-16T00:35:25;98596.81;;;-5.62;100.00
27984;BME280;15317;50.360;8.726;2022-12-16T00:39:27;98586.47;;;-5.66;100.00
27984;BME280;15317;50.360;8.726;2022-12-16T00:43:30;98576.44;;;-5.60;100.00
27984;BME280;15317;50.360;8.726;2022-12-16T00:47:32;98575.56;;;-5.60;100.00
27984;BME280;15317;50.360;8.726;2022-12-16T00:51:34;98589.75;;;-5.61;100.00
27984;BME280;15317;50.360;8.726;2022-12-16T00:55:36;98593.47;;;-5.65;100.00
27984;BME280;15317;50.360;8.726;2022-12-16T00:59:40;98595.03;;;-5.61;100.00
27984;BME280;15317;50.360;8.726;2022-12-16T01:03:41;98568.56;;;-5.61;100.00
27984;BME280;15317;50.360;8.726;2022-12-16T01:07:43;98574.28;;;-5.69;100.00
27984;BME280;15317;50.360;8.726;2022-12-16T01:11:45;98578.63;;;-5.68;100.00
27984;BME280;15317;50.360;8.726;2022-12-16T01:15:49;98593.47;;;-5.65;100.00
27984;BME280;15317;50.360;8.726;2022-12-16T01:19:52;98588.34;;;-5.68;100.00
27984;BME280;15317;50.360;8.726;2022-12-16T01:23:54;98593.38;;;-5.64;100.00
27984;BME280;15317;50.360;8.726;2022-12-16T01:27:56;98612.09;;;-5.67;100.00
27984;BME280;15317;50.360;8.726;2022-12-16T01:31:59;98598.19;;;-5.54;100.00
27984;BME280;15317;50.360;8.726;2022-12-16T01:36:04;98607.84;;;-5.53;100.00
27984;BME280;15317;50.360;8.726;2022-12-16T01:40:08;98612.09;;;-5.51;100.00
27984;BME280;15317;50.360;8.726;2022-12-16T01:44:20;98613.47;;;-5.60;100.00
27984;BME280;15317;50.360;8.726;2022-12-16T01:48:31;98626.25;;;-5.52;100.00
27984;BME280;15317;50.360;8.726;2022-12-16T01:52:38;98630.00;;;-5.56;100.00
27984;BME280;15317;50.360;8.726;2022-12-16T01:56:45;98644.03;;;-5.54;100.00
27984;BME280;15317;50.360;8.726;2022-12-16T02:00:49;98629.34;;;-5.60;100.00
27984;BME280;15317;50.360;8.726;2022-12-16T02:04:53;98636.31;;;-5.59;100.00
27984;BME280;15317;50.360;8.726;2022-12-16T02:09:13;98635.47;;;-5.59;100.00
27984;BME280;15317;50.360;8.726;2022-12-16T02:13:21;98630.94;;;-5.57;100.00
27984;BME280;15317;50.360;8.726;2022-12-16T02:17:31;98637.03;;;-5.55;100.00
27984;BME280;15317;50.360;8.726;2022-12-16T02:21:45;98637.16;;;-5.58;100.00
27984;BME280;15317;50.360;8.726;2022-12-16T02:26:01;98633.78;;;-5.60;100.00
27984;BME280;15317;50.360;8.726;2022-12-16T02:30:50;98633.84;;;-5.62;100.00
27984;BME280;15317;50.360;8.726;2022-12-16T02:35:01;98634.84;;;-5.64;100.00
27984;BME280;15317;50.360;8.726;2022-12-16T02:39:12;98629.63;;;-5.66;100.00
27984;BME280;15317;50.360;8.726;2022-12-16T02:43:20;98626.63;;;-5.75;100.00
27984;BME280;15317;50.360;8.726;2022-12-16T02:47:27;98629.81;;;-5.69;100.00
27984;BME280;15317;50.360;8.726;2022-12-16T02:51:29;98623.34;;;-5.63;100.00
27984;BME280;15317;50.360;8.726;2022-12-16T02:55:36;98626.59;;;-5.58;100.00
27984;BME280;15317;50.360;8.726;2022-12-16T02:59:52;98630.81;;;-5.54;100.00
27984;BME280;15317;50.360;8.726;2022-12-16T03:04:02;98617.91;;;-5.60;100.00
27984;BME280;15317;50.360;8.726;2022-12-16T03:08:09;98627.22;;;-5.53;100.00
27984;BME280;15317;50.360;8.726;2022-12-16T03:12:15;98632.59;;;-5.54;100.00
27984;BME280;15317;50.360;8.726;2022-12-16T03:16:21;98626.13;;;-5.49;100.00
27984;BME280;15317;50.360;8.726;2022-12-16T03:20:30;98642.91;;;-5.50;100.00
27984;BME280;15317;50.360;8.726;2022-12-16T03:24:34;98631.47;;;-5.50;100.00
27984;BME280;15317;50.360;8.726;2022-12-16T03:28:43;98626.59;;;-5.58;100.00
27984;BME280;15317;50.360;8.726;2022-12-16T03:32:49;98624.72;;;-5.56;100.00
27984;BME280;15317;50.360;8.726;2022-12-16T03:36:58;98632.50;;;-5.53;100.00
27984;BME280;15317;50.360;8.726;2022-12-16T03:41:01;98625.66;;;-5.57;100.00
27984;BME280;15317;50.360;8.726;2022-12-16T03:45:06;98634.53;;;-5.58;100.00
27984;BME280;15317;50.360;8.726;2022-12-16T03:49:09;98634.13;;;-5.50;100.00
27984;BME280;15317;50.360;8.726;2022-12-16T03:53:12;98646.16;;;-5.45;100.00
27984;BME280;15317;50.360;8.726;2022-12-16T03:57:14;98646.94;;;-5.43;100.00
27984;BME280;15317;50.360;8.726;2022-12-16T04:01:16;98647.88;;;-5.44;100.00
27984;BME280;15317;50.360;8.726;2022-12-16T04:05:18;98637.75;;;-5.36;100.00
27984;BME280;15317;50.360;8.726;2022-12-16T04:09:22;98652.31;;;-5.44;100.00
27984;BME280;15317;50.360;8.726;2022-12-16T04:13:24;98662.50;;;-5.37;100.00
27984;BME280;15317;50.360;8.726;2022-12-16T04:17:43;98666.41;;;-5.44;100.00
27984;BME280;15317;50.360;8.726;2022-12-16T04:22:03;98662.81;;;-5.43;100.00
27984;BME280;15317;50.360;8.726;2022-12-16T04:26:24;98668.13;;;-5.43;100.00
27984;BME280;15317;50.360;8.726;2022-12-16T04:30:28;98667.72;;;-5.52;100.00
27984;BME280;15317;50.360;8.726;2022-12-16T04:34:34;98668.59;;;-5.52;100.00
27984;BME280;15317;50.360;8.726;2022-12-16T04:38:36;98666.53;;;-5.63;100.00
27984;BME280;15317;50.360;8.726;2022-12-16T04:42:57;98666.78;;;-5.67;100.00
27984;BME280;15317;50.360;8.726;2022-12-16T04:47:17;98664.13;;;-5.67;100.00
27984;BME280;15317;50.360;8.726;2022-12-16T04:51:36;98669.22;;;-5.64;100.00
27984;BME280;15317;50.360;8.726;2022-12-16T04:55:56;98686.13;;;-5.67;100.00
27984;BME280;15317;50.360;8.726;2022-12-16T05:00:17;98687.28;;;-5.55;100.00
27984;BME280;15317;50.360;8.726;2022-12-16T05:04:36;98692.56;;;-5.55;100.00
27984;BME280;15317;50.360;8.726;2022-12-16T05:08:56;98691.41;;;-5.49;100.00
27984;BME280;15317;50.360;8.726;2022-12-16T05:13:15;98700.66;;;-5.41;100.00
27984;BME280;15317;50.360;8.726;2022-12-16T05:17:36;98702.19;;;-5.37;100.00
27984;BME280;15317;50.360;8.726;2022-12-16T05:21:56;98713.31;;;-5.30;100.00
27984;BME280;15317;50.360;8.726;2022-12-16T05:26:15;98717.28;;;-5.22;100.00
27984;BME280;15317;50.360;8.726;2022-12-16T05:30:35;98730.03;;;-5.12;100.00
27984;BME280;15317;50.360;8.726;2022-12-16T05:34:55;98739.25;;;-5.04;100.00
27984;BME280;15317;50.360;8.726;2022-12-16T05:39:14;98738.41;;;-5.04;100.00
27984;BME280;15317;50.360;8.726;2022-12-16T05:43:34;98751.56;;;-5.03;100.00
27984;BME280;15317;50.360;8.726;2022-12-16T05:47:53;98754.28;;;-5.04;100.00
27984;BME280;15317;50.360;8.726;2022-12-16T05:52:14;98757.72;;;-5.02;100.00
27984;BME280;15317;50.360;8.726;2022-12-16T05:56:34;98778.09;;;-5.04;100.00
27984;BME280;15317;50.360;8.726;2022-12-16T06:00:53;98777.03;;;-5.00;100.00
27984;BME280;15317;50.360;8.726;2022-12-16T06:05:13;98783.88;;;-4.96;100.00
27984;BME280;15317;50.360;8.726;2022-12-16T06:09:34;98785.75;;;-4.98;100.00
27984;BME280;15317;50.360;8.726;2022-12-16T06:13:53;98791.06;;;-4.98;100.00
27984;BME280;15317;50.360;8.726;2022-12-16T06:18:13;98798.13;;;-4.99;100.00
27984;BME280;15317;50.360;8.726;2022-12-16T06:22:32;98796.50;;;-5.01;100.00
27984;BME280;15317;50.360;8.726;2022-12-16T06:26:53;98804.44;;;-5.01;100.00
27984;BME280;15317;50.360;8.726;2022-12-16T06:31:13;98807.88;;;-4.99;100.00
27984;BME280;15317;50.360;8.726;2022-12-16T06:35:32;98813.16;;;-4.99;100.00
27984;BME280;15317;50.360;8.726;2022-12-16T06:40:00;98824.69;;;-5.00;100.00
27984;BME280;15317;50.360;8.726;2022-12-16T06:44:21;98827.09;;;-4.96;100.00
27984;BME280;15317;50.360;8.726;2022-12-16T06:48:41;98836.69;;;-4.93;100.00
27984;BME280;15317;50.360;8.726;2022-12-16T06:53:00;98850.28;;;-4.84;100.00
27984;BME280;15317;50.360;8.726;2022-12-16T06:57:19;98864.63;;;-4.88;100.00
27984;BME280;15317;50.360;8.726;2022-12-16T07:01:40;98866.03;;;-4.81;100.00
27984;BME280;15317;50.360;8.726;2022-12-16T07:06:00;98878.03;;;-4.91;100.00
27984;BME280;15317;50.360;8.726;2022-12-16T07:10:19;98888.22;;;-4.83;100.00
27984;BME280;15317;50.360;8.726;2022-12-16T07:14:41;98890.88;;;-4.83;100.00
27984;BME280;15317;50.360;8.726;2022-12-16T07:19:02;98901.31;;;-4.80;100.00
27984;BME280;15317;50.360;8.726;2022-12-16T07:23:22;98907.63;;;-4.83;100.00
27984;BME280;15317;50.360;8.726;2022-12-16T07:27:44;98910.34;;;-4.84;100.00
27984;BME280;15317;50.360;8.726;2022-12-16T07:32:04;98918.06;;;-4.80;100.00
27984;BME280;15317;50.360;8.726;2022-12-16T07:36:25;98922.50;;;-4.80;100.00
27984;BME280;15317;50.360;8.726;2022-12-16T07:40:46;98932.47;;;-4.68;100.00
27984;BME280;15317;50.360;8.726;2022-12-16T07:45:06;98933.88;;;-4.61;100.00
27984;BME280;15317;50.360;8.726;2022-12-16T07:49:26;98951.69;;;-3.81;100.00
27984;BME280;15317;50.360;8.726;2022-12-16T07:53:47;98955.06;;;-3.15;100.00
27984;BME280;15317;50.360;8.726;2022-12-16T07:58:07;98959.72;;;-1.72;97.16
27984;BME280;15317;50.360;8.726;2022-12-16T08:02:27;98966.94;;;-0.92;89.59
27984;BME280;15317;50.360;8.726;2022-12-16T08:07:02;98980.59;;;0.33;83.13
27984;BME280;15317;50.360;8.726;2022-12-16T08:11:23;98984.22;;;1.17;74.56
27984;BME280;15317;50.360;8.726;2022-12-16T08:15:44;99004.28;;;1.23;71.33
27984;BME280;15317;50.360;8.726;2022-12-16T08:20:04;98984.91;;;1.56;69.15
27984;BME280;15317;50.360;8.726;2022-12-16T08:24:24;99008.22;;;2.35;66.33
27984;BME280;15317;50.360;8.726;2022-12-16T08:28:44;99016.44;;;3.21;63.34
27984;BME280;15317;50.360;8.726;2022-12-16T08:33:04;99026.13;;;3.55;57.71
27984;BME280;15317;50.360;8.726;2022-12-16T08:37:23;99040.16;;;3.91;57.49
27984;BME280;15317;50.360;8.726;2022-12-16T08:41:43;99045.56;;;1.79;64.63
27984;BME280;15317;50.360;8.726;2022-12-16T08:46:04;99047.53;;;-0.48;73.13
27984;BME280;15317;50.360;8.726;2022-12-16T08:50:24;99053.25;;;-1.36;80.07
27984;BME280;15317;50.360;8.726;2022-12-16T08:54:43;99064.31;;;-2.44;87.95
27984;BME280;15317;50.360;8.726;2022-12-16T08:59:03;99067.69;;;-2.72;91.32
27984;BME280;15317;50.360;8.726;2022-12-16T09:03:24;99071.13;;;-2.86;95.41
27984;BME280;15317;50.360;8.726;2022-12-16T09:07:44;99075.78;;;-3.05;96.34
27984;BME280;15317;50.360;8.726;2022-12-16T09:12:03;99084.69;;;-3.22;97.69
27984;BME280;15317;50.360;8.726;2022-12-16T09:16:22;99092.69;;;-3.39;98.30
27984;BME280;15317;50.360;8.726;2022-12-16T09:20:43;99100.63;;;-2.74;97.88
27984;BME280;15317;50.360;8.726;2022-12-16T09:25:03;99109.25;;;-0.81;88.33
27984;BME280;15317;50.360;8.726;2022-12-16T09:29:23;99114.63;;;2.57;68.85
27984;BME280;15317;50.360;8.726;2022-12-16T09:33:42;99121.31;;;4.58;59.28
27984;BME280;15317;50.360;8.726;2022-12-16T09:38:03;99126.91;;;5.98;53.11
27984;BME280;15317;50.360;8.726;2022-12-16T09:42:31;99134.44;;;7.27;48.56
27984;BME280;15317;50.360;8.726;2022-12-16T09:47:01;99131.81;;;8.17;45.55
27984;BME280;15317;50.360;8.726;2022-12-16T09:51:24;99138.91;;;8.89;43.14
27984;BME280;15317;50.360;8.726;2022-12-16T09:55:46;99142.91;;;9.29;42.51
27984;BME280;15317;50.360;8.726;2022-12-16T10:00:15;99145.03;;;9.17;42.61
27984;BME280;15317;50.360;8.726;2022-12-16T10:04:37;99136.09;;;8.38;43.08
27984;BME280;15317;50.360;8.726;2022-12-16T10:09:01;99125.94;;;5.68;46.79
27984;BME280;15317;50.360;8.726;2022-12-16T10:13:32;99132.31;;;3.60;54.32
27984;BME280;15317;50.360;8.726;2022-12-16T10:17:53;99131.50;;;1.40;61.93
27984;BME280;15317;50.360;8.726;2022-12-16T10:22:17;99125.53;;;0.10;67.80
27984;BME280;15317;50.360;8.726;2022-12-16T10:26:47;99127.09;;;-0.54;72.29
27984;BME280;15317;50.360;8.726;2022-12-16T10:31:15;99129.16;;;-0.72;75.47
27984;BME280;15317;50.360;8.726;2022-12-16T10:35:37;99134.31;;;-1.40;81.24
27984;BME280;15317;50.360;8.726;2022-12-16T10:40:01;99136.03;;;-1.53;81.65
27984;BME280;15317;50.360;8.726;2022-12-16T10:44:23;99147.13;;;-1.61;84.05
27984;BME280;15317;50.360;8.726;2022-12-16T10:48:45;99144.63;;;-1.78;86.37
27984;BME280;15317;50.360;8.726;2022-12-16T10:53:11;99148.28;;;-1.94;88.83
27984;BME280;15317;50.360;8.726;2022-12-16T10:57:37;99151.34;;;-1.86;89.68
27984;BME280;15317;50.360;8.726;2022-12-16T11:02:02;99150.78;;;-1.77;89.98
27984;BME280;15317;50.360;8.726;2022-12-16T11:06:25;99152.47;;;-1.90;90.04
27984;BME280;15317;50.360;8.726;2022-12-16T11:10:45;99144.31;;;-1.87;90.85
27984;BME280;15317;50.360;8.726;2022-12-16T11:15:22;99145.09;;;-1.85;92.70
27984;BME280;15317;50.360;8.726;2022-12-16T11:19:42;99153.97;;;-1.71;91.60
27984;BME280;15317;50.360;8.726;2022-12-16T11:24:18;99153.41;;;-1.62;92.67
27984;BME280;15317;50.360;8.726;2022-12-16T11:28:38;99152.50;;;-1.46;91.42
27984;BME280;15317;50.360;8.726;2022-12-16T11:33:13;99153.53;;;-1.49;91.29
27984;BME280;15317;50.360;8.726;2022-12-16T11:37:37;99153.81;;;-1.39;92.08
27984;BME280;15317;50.360;8.726;2022-12-16T11:42:00;99152.31;;;-1.29;92.23
27984;BME280;15317;50.360;8.726;2022-12-16T11:46:24;99164.97;;;-1.18;91.12
27984;BME280;15317;50.360;8.726;2022-12-16T11:50:49;99163.44;;;-1.08;91.16
27984;BME280;15317;50.360;8.726;2022-12-16T11:55:17;99160.91;;;-1.10;91.93
27984;BME280;15317;50.360;8.726;2022-12-16T11:59:41;99169.16;;;-0.86;91.65
27984;BME280;15317;50.360;8.726;2022-12-16T12:04:03;99166.47;;;-0.72;90.16
27984;BME280;15317;50.360;8.726;2022-12-16T12:08:29;99170.53;;;-0.52;90.54
27984;BME280;15317;50.360;8.726;2022-12-16T12:12:56;99176.81;;;-0.53;90.34
27984;BME280;15317;50.360;8.726;2022-12-16T12:17:29;99177.50;;;-0.50;88.58
27984;BME280;15317;50.360;8.726;2022-12-16T12:21:51;99176.94;;;-0.55;88.28
27984;BME280;15317;50.360;8.726;2022-12-16T12:26:20;99187.56;;;-0.41;87.19
27984;BME280;15317;50.360;8.726;2022-12-16T12:30:49;99194.69;;;-0.27;86.88
27984;BME280;15317;50.360;8.726;2022-12-16T12:35:23;99203.72;;;-0.15;88.10
27984;BME280;15317;50.360;8.726;2022-12-16T12:39:52;99213.06;;;-0.22;88.70
27984;BME280;15317;50.360;8.726;2022-12-16T12:44:19;99216.91;;;-0.41;90.54
27984;BME280;15317;50.360;8.726;2022-12-16T12:48:46;99211.09;;;-0.47;91.29
27984;BME280;15317;50.360;8.726;2022-12-16T12:53:17;99213.13;;;-0.51;92.59
27984;BME280;15317;50.360;8.726;2022-12-16T12:57:45;99213.13;;;-0.51;91.95
27984;BME280;15317;50.360;8.726;2022-12-16T13:02:09;99226.78;;;-0.55;91.32
27984;BME280;15317;50.360;8.726;2022-12-16T13:06:34;99227.03;;;-0.74;91.97
27984;BME280;15317;50.360;8.726;2022-12-16T13:11:10;99220.75;;;-0.87;95.19
27984;BME280;15317;50.360;8.726;2022-12-16T13:15:34;99230.56;;;-0.88;94.43
27984;BME280;15317;50.360;8.726;2022-12-16T13:20:04;99229.13;;;-0.93;95.94
27984;BME280;15317;50.360;8.726;2022-12-16T13:24:46;99229.72;;;-0.88;94.61
27984;BME280;15317;50.360;8.726;2022-12-16T13:29:18;99237.44;;;-0.98;94.82
27984;BME280;15317;50.360;8.726;2022-12-16T13:33:38;99241.69;;;-0.95;95.01
27984;BME280;15317;50.360;8.726;2022-12-16T13:38:00;99244.94;;;-1.04;95.54
27984;BME280;15317;50.360;8.726;2022-12-16T13:42:47;99261.31;;;-1.10;95.79
27984;BME280;15317;50.360;8.726;2022-12-16T13:47:30;99261.47;;;-1.13;96.02
27984;BME280;15317;50.360;8.726;2022-12-16T13:51:59;99268.91;;;-1.18;96.90
27984;BME280;15317;50.360;8.726;2022-12-16T13:56:25;99275.34;;;-1.23;95.90
27984;BME280;15317;50.360;8.726;2022-12-16T14:00:55;99279.69;;;-1.36;96.68
27984;BME280;15317;50.360;8.726;2022-12-16T14:05:21;99286.59;;;-1.47;97.29
27984;BME280;15317;50.360;8.726;2022-12-16T14:09:42;99296.19;;;-1.59;98.40
27984;BME280;15317;50.360;8.726;2022-12-16T14:14:07;99302.34;;;-1.58;97.99
27984;BME280;15317;50.360;8.726;2022-12-16T14:18:37;99307.03;;;-1.78;98.54
27984;BME280;15317;50.360;8.726;2022-12-16T14:23:08;99308.31;;;-1.85;98.93
27984;BME280;15317;50.360;8.726;2022-12-16T14:27:33;99315.94;;;-1.94;98.70
27984;BME280;15317;50.360;8.726;2022-12-16T14:31:52;99320.41;;;-2.11;99.94
27984;BME280;15317;50.360;8.726;2022-12-16T14:36:20;99321.38;;;-2.12;100.00
27984;BME280;15317;50.360;8.726;2022-12-16T14:40:41;99330.00;;;-2.24;100.00
27984;BME280;15317;50.360;8.726;2022-12-16T14:45:01;99335.84;;;-2.33;100.00
27984;BME280;15317;50.360;8.726;2022-12-16T14:49:22;99337.19;;;-2.42;100.00
27984;BME280;15317;50.360;8.726;2022-12-16T14:53:42;99340.78;;;-2.43;100.00
27984;BME280;15317;50.360;8.726;2022-12-16T14:58:09;99342.13;;;-2.51;100.00
27984;BME280;15317;50.360;8.726;2022-12-16T15:02:31;99349.34;;;-2.53;100.00
27984;BME280;15317;50.360;8.726;2022-12-16T15:06:54;99348.28;;;-2.66;100.00
27984;BME280;15317;50.360;8.726;2022-12-16T15:11:15;99363.00;;;-2.76;100.00
27984;BME280;15317;50.360;8.726;2022-12-16T15:15:42;99367.91;;;-2.86;100.00
27984;BME280;15317;50.360;8.726;2022-12-16T15:20:03;99380.91;;;-2.80;100.00
27984;BME280;15317;50.360;8.726;2022-12-16T15:24:25;99384.47;;;-2.98;100.00
27984;BME280;15317;50.360;8.726;2022-12-16T15:28:45;99388.25;;;-3.02;100.00
27984;BME280;15317;50.360;8.726;2022-12-16T15:33:14;99399.03;;;-3.05;100.00
27984;BME280;15317;50.360;8.726;2022-12-16T15:37:37;99397.53;;;-3.11;100.00
27984;BME280;15317;50.360;8.726;2022-12-16T15:41:57;99405.50;;;-3.11;100.00
27984;BME280;15317;50.360;8.726;2022-12-16T15:46:19;99404.66;;;-3.11;100.00
27984;BME280;15317;50.360;8.726;2022-12-16T15:50:40;99409.41;;;-3.18;100.00
27984;BME280;15317;50.360;8.726;2022-12-16T15:55:00;99416.75;;;-3.23;100.00
27984;BME280;15317;50.360;8.726;2022-12-16T15:59:25;99424.34;;;-3.34;100.00
27984;BME280;15317;50.360;8.726;2022-12-16T16:03:49;99427.13;;;-3.36;100.00
27984;BME280;15317;50.360;8.726;2022-12-16T16:08:11;99437.00;;;-3.39;100.00
27984;BME280;15317;50.360;8.726;2022-12-16T16:12:30;99443.63;;;-3.48;100.00
27984;BME280;15317;50.360;8.726;2022-12-16T16:16:49;99441.06;;;-3.49;100.00
27984;BME280;15317;50.360;8.726;2022-12-16T16:21:09;99446.50;;;-3.52;100.00
27984;BME280;15317;50.360;8.726;2022-12-16T16:25:30;99451.97;;;-3.55;100.00
27984;BME280;15317;50.360;8.726;2022-12-16T16:30:01;99455.97;;;-3.66;100.00
27984;BME280;15317;50.360;8.726;2022-12-16T16:34:21;99461.16;;;-3.63;100.00
27984;BME280;15317;50.360;8.726;2022-12-16T16:38:40;99461.44;;;-3.69;100.00
27984;BME280;15317;50.360;8.726;2022-12-16T16:43:01;99467.41;;;-3.82;100.00
27984;BME280;15317;50.360;8.726;2022-12-16T16:47:20;99460.22;;;-3.80;100.00
27984;BME280;15317;50.360;8.726;2022-12-16T16:51:40;99480.22;;;-3.92;100.00
27984;BME280;15317;50.360;8.726;2022-12-16T16:55:59;99492.69;;;-3.94;100.00
27984;BME280;15317;50.360;8.726;2022-12-16T17:00:21;99482.75;;;-4.09;100.00
27984;BME280;15317;50.360;8.726;2022-12-16T17:04:40;99495.63;;;-4.20;100.00
27984;BME280;15317;50.360;8.726;2022-12-16T17:09:00;99514.41;;;-4.25;100.00
27984;BME280;15317;50.360;8.726;2022-12-16T17:13:19;99505.59;;;-4.25;100.00
27984;BME280;15317;50.360;8.726;2022-12-16T17:17:40;99511.72;;;-4.44;100.00
27984;BME280;15317;50.360;8.726;2022-12-16T17:22:00;99518.91;;;-4.47;100.00
27984;BME280;15317;50.360;8.726;2022-12-16T17:26:19;99525.34;;;-4.53;100.00
27984;BME280;15317;50.360;8.726;2022-12-16T17:30:39;99531.50;;;-4.52;100.00
27984;BME280;15317;50.360;8.726;2022-12-16T17:35:00;99527.34;;;-4.58;100.00
27984;BME280;15317;50.360;8.726;2022-12-16T17:39:20;99539.78;;;-4.60;100.00
27984;BME280;15317;50.360;8.726;2022-12-16T17:43:39;99542.03;;;-4.71;100.00
27984;BME280;15317;50.360;8.726;2022-12-16T17:47:59;99545.84;;;-4.78;100.00
27984;BME280;15317;50.360;8.726;2022-12-16T17:52:19;99557.44;;;-4.81;100.00
27984;BME280;15317;50.360;8.726;2022-12-16T17:56:39;99560.28;;;-4.85;100.00
27984;BME280;15317;50.360;8.726;2022-12-16T18:01:03;99552.19;;;-4.82;100.00
27984;BME280;15317;50.360;8.726;2022-12-16T18:05:23;99558.03;;;-4.74;100.00
27984;BME280;15317;50.360;8.726;2022-12-16T18:09:44;99573.06;;;-4.74;100.00
27984;BME280;15317;50.360;8.726;2022-12-16T18:14:03;99565.94;;;-4.72;100.00
27984;BME280;15317;50.360;8.726;2022-12-16T18:18:23;99571.34;;;-4.75;100.00
27984;BME280;15317;50.360;8.726;2022-12-16T18:22:51;99580.34;;;-4.80;100.00
27984;BME280;15317;50.360;8.726;2022-12-16T18:27:12;99593.78;;;-4.84;100.00
27984;BME280;15317;50.360;8.726;2022-12-16T18:31:31;99591.75;;;-4.99;100.00
27984;BME280;15317;50.360;8.726;2022-12-16T18:35:51;99598.06;;;-5.03;100.00
27984;BME280;15317;50.360;8.726;2022-12-16T18:40:10;99598.47;;;-5.12;100.00
27984;BME280;15317;50.360;8.726;2022-12-16T18:44:31;99607.41;;;-5.17;100.00
27984;BME280;15317;50.360;8.726;2022-12-16T18:48:51;99607.56;;;-5.20;100.00
27984;BME280;15317;50.360;8.726;2022-12-16T18:53:10;99614.69;;;-5.22;100.00
27984;BME280;15317;50.360;8.726;2022-12-16T18:57:30;99620.16;;;-5.26;100.00
27984;BME280;15317;50.360;8.726;2022-12-16T19:01:51;99636.72;;;-5.21;100.00
27984;BME280;15317;50.360;8.726;2022-12-16T19:06:10;99642.91;;;-5.21;100.00
27984;BME280;15317;50.360;8.726;2022-12-16T19:10:30;99637.84;;;-5.27;100.00
27984;BME280;15317;50.360;8.726;2022-12-16T19:14:49;99647.94;;;-5.38;100.00
27984;BME280;15317;50.360;8.726;2022-12-16T19:19:10;99650.72;;;-5.41;100.00
27984;BME280;15317;50.360;8.726;2022-12-16T19:23:30;99658.75;;;-5.44;100.00
27984;BME280;15317;50.360;8.726;2022-12-16T19:28:00;99661.25;;;-5.39;100.00
27984;BME280;15317;50.360;8.726;2022-12-16T19:32:20;99663.44;;;-5.27;100.00
27984;BME280;15317;50.360;8.726;2022-12-16T19:36:41;99669.84;;;-5.33;100.00
27984;BME280;15317;50.360;8.726;2022-12-16T19:41:01;99666.38;;;-5.35;100.00
27984;BME280;15317;50.360;8.726;2022-12-16T19:45:20;99672.16;;;-5.48;100.00
27984;BME280;15317;50.360;8.726;2022-12-16T19:49:40;99680.22;;;-5.51;100.00
27984;BME280;15317;50.360;8.726;2022-12-16T19:54:01;99689.69;;;-5.69;100.00
27984;BME280;15317;50.360;8.726;2022-12-16T19:58:21;99689.69;;;-5.69;100.00
27984;BME280;15317;50.360;8.726;2022-12-16T20:02:40;99694.16;;;-5.71;100.00
27984;BME280;15317;50.360;8.726;2022-12-16T20:07:00;99706.16;;;-5.61;100.00
27984;BME280;15317;50.360;8.726;2022-12-16T20:11:20;99712.09;;;-5.54;100.00
27984;BME280;15317;50.360;8.726;2022-12-16T20:15:40;99717.81;;;-5.42;100.00
27984;BME280;15317;50.360;8.726;2022-12-16T20:19:59;99722.78;;;-5.33;100.00
27984;BME280;15317;50.360;8.726;2022-12-16T20:24:19;99726.63;;;-5.18;100.00
27984;BME280;15317;50.360;8.726;2022-12-16T20:28:40;99720.25;;;-5.12;100.00
27984;BME280;15317;50.360;8.726;2022-12-16T20:32:59;99729.00;;;-5.10;100.00
27984;BME280;15317;50.360;8.726;2022-12-16T20:37:19;99730.50;;;-5.03;100.00
27984;BME280;15317;50.360;8.726;2022-12-16T20:41:41;99748.03;;;-4.99;100.00
27984;BME280;15317;50.360;8.726;2022-12-16T20:46:02;99750.50;;;-4.95;100.00
27984;BME280;15317;50.360;8.726;2022-12-16T20:50:21;99761.50;;;-5.05;100.00
27984;BME280;15317;50.360;8.726;2022-12-16T20:54:41;99768.72;;;-5.10;100.00
27984;BME280;15317;50.360;8.726;2022-12-16T20:59:09;99768.03;;;-5.15;100.00
27984;BME280;15317;50.360;8.726;2022-12-16T21:03:30;99767.66;;;-5.30;100.00
27984;BME280;15317;50.360;8.726;2022-12-16T21:07:49;99773.78;;;-5.28;100.00
27984;BME280;15317;50.360;8.726;2022-12-16T21:12:09;99783.66;;;-5.33;100.00
27984;BME280;15317;50.360;8.726;2022-12-16T21:16:29;99792.53;;;-5.34;100.00
27984;BME280;15317;50.360;8.726;2022-12-16T21:20:52;99792.34;;;-5.29;100.00
27984;BME280;15317;50.360;8.726;2022-12-16T21:25:13;99807.16;;;-5.24;100.00
27984;BME280;15317;50.360;8.726;2022-12-16T21:29:33;99804.94;;;-5.36;100.00
27984;BME280;15317;50.360;8.726;2022-12-16T21:33:52;99808.94;;;-5.49;100.00
27984;BME280;15317;50.360;8.726;2022-12-16T21:38:13;99810.34;;;-5.65;100.00
27984;BME280;15317;50.360;8.726;2022-12-16T21:42:32;99810.56;;;-5.71;100.00
27984;BME280;15317;50.360;8.726;2022-12-16T21:46:52;99821.53;;;-5.83;100.00
27984;BME280;15317;50.360;8.726;2022-12-16T21:51:12;99834.28;;;-5.94;100.00
27984;BME280;15317;50.360;8.726;2022-12-16T21:55:32;99827.47;;;-6.02;100.00
27984;BME280;15317;50.360;8.726;2022-12-16T21:59:52;99837.94;;;-5.99;100.00
27984;BME280;15317;50.360;8.726;2022-12-16T22:04:11;99838.75;;;-5.96;100.00
27984;BME280;15317;50.360;8.726;2022-12-16T22:08:31;99847.44;;;-5.93;100.00
27984;BME280;15317;50.360;8.726;2022-12-16T22:12:52;99851.47;;;-5.81;100.00
27984;BME280;15317;50.360;8.726;2022-12-16T22:17:11;99858.66;;;-5.86;100.00
27984;BME280;15317;50.360;8.726;2022-12-16T22:21:31;99856.16;;;-5.89;100.00
27984;BME280;15317;50.360;8.726;2022-12-16T22:25:54;99867.75;;;-5.93;100.00
27984;BME280;15317;50.360;8.726;2022-12-16T22:30:15;99869.88;;;-6.05;100.00
27984;BME280;15317;50.360;8.726;2022-12-16T22:34:35;99877.28;;;-6.16;100.00
27984;BME280;15317;50.360;8.726;2022-12-16T22:38:54;99883.50;;;-6.18;100.00